BFI weather

Boeing Field King County International Airport
Seattle, Washington, United States

Public forecast

Using degrees Fahrenheit for public forecast. Weather courtesy of forecast.io.

Current aviation weather report (METAR) for Boeing Field King County International Airport

Retrieved 2019/11/20 12:53 UTC (21 minutes ago):

KBFI 201253Z VRB03KT 10SM CLR 06/04 A3013 RMK AO2 SLP202 T00560039

Aviation forecast (TAF) for Boeing Field King County International Airport

Retrieved 2019/11/20 12:33 UTC (41 minutes ago):

TAF KBFI 201130Z 2012/2112 VRB04KT P6SM FEW015 FM201400 36004KT P6SM SKC